Time;durP1;ratioP1;P1;durP2;ratioP2;P2;SDS_P1;SDS_P2;PMS_P1;PMS_P2;Temp;Humidity;BMP_temperature;BMP_pressure;BME280_temperature;BME280_humidity;BME280_pressure;Samples;Min_cycle;Max_cycle;Signal;HPM_P1;HPM_P2
2022/12/04 00:00:38;;;;;;;3.33;1.30;;;;;;;5.18;100.00;98246.31;5000674;28;20025;-58
2022/12/04 00:03:04;;;;;;;4.07;1.13;;;;;;;5.24;100.00;98249.31;4998898;28;20041;-61
2022/12/04 00:05:29;;;;;;;3.08;1.13;;;;;;;5.22;100.00;98241.72;4998878;28;20049;-60
2022/12/04 00:07:55;;;;;;;3.33;1.25;;;;;;;5.05;100.00;98208.69;5001373;28;20025;-58
2022/12/04 00:10:20;;;;;;;3.50;1.10;;;;;;;5.21;100.00;98229.75;4999726;28;20518;-61
2022/12/04 00:12:45;;;;;;;3.25;1.17;;;;;;;5.18;100.00;98233.41;5003414;28;20037;-61
2022/12/04 00:15:11;;;;;;;2.78;1.10;;;;;;;5.19;100.00;98242.75;5004172;28;20771;-58
2022/12/04 00:17:36;;;;;;;3.53;1.20;;;;;;;4.95;100.00;98199.13;4999980;28;21181;-61
2022/12/04 00:20:02;;;;;;;3.58;1.40;;;;;;;5.21;100.00;98214.31;5001468;28;20212;-60
2022/12/04 00:22:27;;;;;;;2.47;1.00;;;;;;;5.12;100.00;98212.44;5000496;28;20390;-60
2022/12/04 00:24:53;;;;;;;2.72;0.90;;;;;;;5.12;100.00;98220.16;4999623;28;20496;-58
2022/12/04 00:27:18;;;;;;;3.05;1.10;;;;;;;5.10;100.00;98220.28;5013583;28;20098;-58
2022/12/04 00:29:44;;;;;;;2.80;0.93;;;;;;;5.10;100.00;98215.13;4998172;28;20034;-62
2022/12/04 00:32:09;;;;;;;3.60;1.20;;;;;;;5.05;100.00;98195.81;5000246;28;20057;-61
2022/12/04 00:34:35;;;;;;;3.97;1.50;;;;;;;4.71;100.00;98136.59;5000520;28;20064;-58
2022/12/04 00:37:00;;;;;;;3.95;1.20;;;;;;;5.04;100.00;98199.31;5002390;28;20413;-58
2022/12/04 00:39:25;;;;;;;3.78;1.30;;;;;;;5.09;100.00;98200.63;5015739;28;20116;-60
2022/12/04 00:41:51;;;;;;;2.28;0.80;;;;;;;5.15;100.00;98207.88;5002330;28;20026;-58
2022/12/04 00:44:16;;;;;;;3.33;1.13;;;;;;;5.14;100.00;98207.97;4999315;28;20111;-61
2022/12/04 00:46:42;;;;;;;4.65;1.45;;;;;;;5.15;100.00;98214.78;5004247;28;20025;-61
2022/12/04 00:49:07;;;;;;;3.13;1.02;;;;;;;5.17;100.00;98205.19;5001566;28;20465;-58
2022/12/04 00:51:33;;;;;;;3.80;1.00;;;;;;;5.08;100.00;98204.13;4998793;28;20041;-60
2022/12/04 00:53:58;;;;;;;3.78;1.30;;;;;;;5.12;100.00;98204.72;5015082;28;20038;-58
2022/12/04 00:56:25;;;;;;;3.38;1.23;;;;;;;5.15;100.00;98207.88;5014780;28;20027;-58
2022/12/04 00:58:55;;;;;;;2.63;0.93;;;;;;;5.15;100.00;98189.81;5011269;28;21172;-57
2022/12/04 01:01:21;;;;;;;2.58;0.90;;;;;;;5.23;100.00;98206.44;5018171;28;20889;-58
2022/12/04 01:03:48;;;;;;;3.20;1.10;;;;;;;5.17;100.00;98200.81;4995058;28;20139;-59
2022/12/04 01:06:22;;;;;;;2.83;1.08;;;;;;;5.24;100.00;98200.34;5009487;28;20037;-58
2022/12/04 01:08:49;;;;;;;3.03;1.10;;;;;;;5.25;100.00;98195.06;4986693;28;20045;-61
2022/12/04 01:11:14;;;;;;;3.10;1.08;;;;;;;5.18;100.00;98186.19;4980120;28;20034;-62
2022/12/04 01:13:40;;;;;;;3.65;1.27;;;;;;;5.21;100.00;98193.69;5018103;28;20036;-58
2022/12/04 01:16:06;;;;;;;3.78;1.02;;;;;;;5.15;100.00;98182.09;5002829;28;20026;-60
2022/12/04 01:18:31;;;;;;;3.17;1.20;;;;;;;5.10;100.00;98176.47;5003096;28;20117;-58
2022/12/04 01:20:57;;;;;;;4.38;1.35;;;;;;;5.06;100.00;98182.00;4999086;28;20137;-61
2022/12/04 01:23:22;;;;;;;3.45;1.15;;;;;;;4.68;100.00;98117.06;5003832;28;20661;-58
2022/12/04 01:25:57;;;;;;;3.90;1.30;;;;;;;5.05;100.00;98181.16;5003339;28;20096;-59
2022/12/04 01:28:24;;;;;;;5.15;1.85;;;;;;;4.97;100.00;98166.31;4986309;28;20038;-60
2022/12/04 01:31:16;;;;;;;3.85;1.30;;;;;;;5.02;100.00;98171.13;5020449;28;20036;-63
2022/12/04 01:33:42;;;;;;;4.32;1.60;;;;;;;4.93;100.00;98162.34;4999312;28;20127;-58
2022/12/04 01:36:13;;;;;;;3.50;1.20;;;;;;;4.96;100.00;98153.53;5002228;28;20029;-60
2022/12/04 01:38:39;;;;;;;3.47;1.25;;;;;;;5.12;100.00;98172.00;5004131;28;20018;-60
2022/12/04 01:41:06;;;;;;;2.45;0.90;;;;;;;5.10;100.00;98171.31;5006054;28;20073;-58
2022/12/04 01:43:34;;;;;;;3.58;1.30;;;;;;;5.07;100.00;98163.81;5003561;28;20037;-62
2022/12/04 01:46:01;;;;;;;2.28;0.90;;;;;;;5.09;100.00;98151.66;4982946;28;20029;-63
2022/12/04 01:48:32;;;;;;;2.47;0.88;;;;;;;5.11;100.00;98162.66;4991686;28;20553;-59
2022/12/04 01:50:59;;;;;;;3.33;1.10;;;;;;;5.11;100.00;98164.41;5001522;28;20040;-60
2022/12/04 01:53:25;;;;;;;2.15;0.90;;;;;;;4.84;100.00;98103.81;5004794;28;20029;-60
2022/12/04 01:55:51;;;;;;;2.97;0.93;;;;;;;5.22;100.00;98151.50;5004038;28;20107;-60
2022/12/04 01:58:21;;;;;;;2.67;1.00;;;;;;;4.83;100.00;98104.75;5004719;28;20464;-62
2022/12/04 02:00:51;;;;;;;3.50;1.20;;;;;;;5.09;100.00;98140.50;5014797;28;20048;-62
2022/12/04 02:03:16;;;;;;;3.47;1.08;;;;;;;4.89;100.00;98111.16;4999949;28;20106;-63
2022/12/04 02:05:42;;;;;;;2.40;1.00;;;;;;;5.16;100.00;98146.81;5004152;28;21852;-60
2022/12/04 02:08:09;;;;;;;2.42;1.00;;;;;;;5.17;100.00;98148.47;5018950;28;20049;-61
2022/12/04 02:10:53;;;;;;;2.75;0.93;;;;;;;5.11;100.00;98134.31;4986324;28;20041;-58
2022/12/04 02:13:39;;;;;;;3.20;1.00;;;;;;;5.11;100.00;98142.03;4994670;28;20095;-61
2022/12/04 02:16:15;;;;;;;3.20;0.88;;;;;;;5.13;100.00;98147.06;4971735;28;20038;-59
2022/12/04 02:19:18;;;;;;;3.72;1.10;;;;;;;5.12;100.00;98138.50;5013818;28;20037;-61
2022/12/04 02:21:46;;;;;;;2.38;0.57;;;;;;;5.14;100.00;98131.47;5007665;28;20032;-58
2022/12/04 02:24:21;;;;;;;2.20;0.90;;;;;;;4.91;100.00;98086.94;4989229;28;20038;-58
2022/12/04 02:26:56;;;;;;;2.65;0.85;;;;;;;5.19;100.00;98120.81;5018520;28;20038;-58
2022/12/04 02:29:32;;;;;;;2.65;0.90;;;;;;;5.19;100.00;98120.81;4988697;28;20131;-59
2022/12/04 02:32:23;;;;;;;1.85;0.77;;;;;;;4.90;100.00;98081.91;4998844;28;20035;-60
2022/12/04 02:34:56;;;;;;;1.75;0.60;;;;;;;5.22;100.00;98110.25;5003540;28;20045;-59
2022/12/04 02:37:45;;;;;;;3.08;0.88;;;;;;;5.22;100.00;98122.31;4984527;28;20034;-58
2022/12/04 02:40:37;;;;;;;2.65;0.80;;;;;;;5.19;100.00;98119.03;5002502;28;20443;-58
2022/12/04 02:43:11;;;;;;;2.40;0.70;;;;;;;5.23;100.00;98124.78;5002069;28;20038;-62
2022/12/04 02:45:45;;;;;;;2.50;0.90;;;;;;;5.22;100.00;98112.00;5001665;28;20800;-59
2022/12/04 02:48:15;;;;;;;2.17;0.68;;;;;;;5.20;100.00;98104.38;4977428;28;20133;-62
2022/12/04 02:50:40;;;;;;;1.45;0.52;;;;;;;5.23;100.00;98116.22;4999137;28;20556;-60
2022/12/04 02:53:11;;;;;;;2.83;0.80;;;;;;;5.22;100.00;98110.25;4999824;28;20184;-56
2022/12/04 02:55:41;;;;;;;1.88;0.70;;;;;;;5.23;100.00;98103.34;5003669;28;20567;-60
2022/12/04 02:58:17;;;;;;;2.97;1.00;;;;;;;5.25;100.00;98106.59;5004260;28;20145;-60
2022/12/04 03:00:44;;;;;;;2.70;0.65;;;;;;;5.25;100.00;98104.03;4993400;28;20034;-60
2022/12/04 03:03:24;;;;;;;2.90;0.80;;;;;;;5.31;100.00;98095.78;5017025;28;20026;-60
2022/12/04 03:06:01;;;;;;;1.55;0.60;;;;;;;5.25;100.00;98098.88;5001264;28;20059;-57
2022/12/04 03:08:31;;;;;;;3.15;0.80;;;;;;;4.91;100.00;98045.72;5007234;28;20104;-59
2022/12/04 03:10:59;;;;;;;2.00;0.70;;;;;;;5.27;100.00;98082.34;4992526;28;20041;-60
2022/12/04 03:13:41;;;;;;;1.95;0.63;;;;;;;5.31;100.00;98086.31;4982597;28;20037;-58
2022/12/04 03:16:18;;;;;;;2.20;0.80;;;;;;;5.21;100.00;98072.53;4980515;28;20038;-58
2022/12/04 03:18:56;;;;;;;2.25;0.80;;;;;;;5.26;100.00;98069.59;4996893;28;20669;-57
2022/12/04 03:21:27;;;;;;;1.85;0.60;;;;;;;5.23;100.00;98051.78;4990802;28;20034;-56
2022/12/04 03:24:01;;;;;;;2.33;0.80;;;;;;;5.22;100.00;98063.03;4996382;28;20175;-59
2022/12/04 03:26:36;;;;;;;2.20;0.68;;;;;;;4.97;100.00;98016.06;4996909;28;20037;-57
2022/12/04 03:29:02;;;;;;;2.05;0.70;;;;;;;5.21;100.00;98049.34;4997311;28;20042;-58
2022/12/04 03:31:53;;;;;;;2.47;0.75;;;;;;;5.26;100.00;98057.50;4993927;28;20503;-58
2022/12/04 03:34:29;;;;;;;1.80;0.70;;;;;;;5.34;100.00;98046.56;4980615;28;20077;-56
2022/12/04 03:36:58;;;;;;;1.80;0.60;;;;;;;5.30;100.00;98037.47;4983048;28;20392;-57
2022/12/04 03:39:31;;;;;;;1.37;0.57;;;;;;;5.36;100.00;98036.94;5001483;28;20644;-56
2022/12/04 03:41:59;;;;;;;1.27;0.50;;;;;;;5.38;100.00;98038.47;5002967;28;20129;-57
2022/12/04 03:44:31;;;;;;;2.85;0.80;;;;;;;5.39;100.00;98032.34;5003748;28;20087;-57
2022/12/04 03:47:17;;;;;;;1.83;0.65;;;;;;;5.41;100.00;98032.22;5000604;28;20069;-58
2022/12/04 03:49:48;;;;;;;1.70;0.70;;;;;;;5.40;100.00;98028.00;4983271;28;20025;-59
2022/12/04 03:52:42;;;;;;;2.00;0.70;;;;;;;5.46;100.00;98037.00;5000947;28;20401;-58
2022/12/04 03:55:15;;;;;;;1.73;0.50;;;;;;;5.43;100.00;98021.81;4996540;28;20034;-60
2022/12/04 03:57:42;;;;;;;1.80;0.63;;;;;;;5.50;100.00;98034.06;5012754;28;20038;-57
2022/12/04 04:00:11;;;;;;;0.98;0.40;;;;;;;5.53;100.00;98035.56;5004401;28;20021;-59
2022/12/04 04:02:40;;;;;;;2.03;0.60;;;;;;;5.51;100.00;98042.59;5000946;28;20038;-56
2022/12/04 04:05:08;;;;;;;1.35;0.50;;;;;;;5.43;100.00;98037.28;5006238;28;20091;-59
2022/12/04 04:07:54;;;;;;;2.13;0.60;;;;;;;5.46;100.00;98037.00;5016531;28;20030;-59
2022/12/04 04:10:23;;;;;;;1.85;0.60;;;;;;;5.38;100.00;98046.22;4983208;28;20037;-58
2022/12/04 04:24:14;;;;;;;1.30;0.55;;;;;;;5.36;100.00;98036.94;5011567;28;20077;-61
2022/12/04 04:26:43;;;;;;;1.85;0.60;;;;;;;5.38;100.00;98030.75;5001566;28;20040;-59
2022/12/04 04:29:09;;;;;;;0.80;0.40;;;;;;;5.13;100.00;97997.56;5001097;28;20362;-59
2022/12/04 04:31:42;;;;;;;1.67;0.55;;;;;;;5.28;100.00;98018.72;4998591;28;20040;-58
2022/12/04 04:34:26;;;;;;;3.00;1.02;;;;;;;5.06;100.00;97986.16;4985181;28;20388;-59
2022/12/04 04:37:12;;;;;;;3.53;1.13;;;;;;;5.30;100.00;98014.25;4995031;28;20034;-58
2022/12/04 04:39:38;;;;;;;4.68;1.35;;;;;;;5.32;100.00;98026.06;5003797;28;20555;-59
2022/12/04 04:42:31;;;;;;;2.28;0.80;;;;;;;5.26;100.00;98005.16;5004125;28;20037;-58
2022/12/04 04:45:04;;;;;;;1.92;0.60;;;;;;;5.33;100.00;98012.25;5001954;28;20061;-60
2022/12/04 04:47:37;;;;;;;2.13;0.70;;;;;;;5.23;100.00;97995.09;4983530;28;20068;-58
2022/12/04 04:50:06;;;;;;;2.25;0.70;;;;;;;5.30;100.00;98003.94;4989296;28;20121;-59
2022/12/04 04:52:32;;;;;;;1.15;0.40;;;;;;;5.36;100.00;97993.94;5015153;28;20037;-60
2022/12/04 04:54:59;;;;;;;1.25;0.50;;;;;;;5.43;100.00;98006.34;4998788;28;20738;-58
2022/12/04 04:57:35;;;;;;;0.98;0.40;;;;;;;5.45;100.00;98001.88;4978911;28;20117;-56
2022/12/04 05:00:05;;;;;;;0.70;0.40;;;;;;;5.52;100.00;98005.56;5021054;28;20038;-57
2022/12/04 05:02:30;;;;;;;;;;;;;;;5.50;100.00;98002.31;5014897;28;20124;-57
2022/12/04 05:04:56;;;;;;;0.20;0.20;;;;;;;5.47;100.00;97995.63;5002930;28;20032;-57
2022/12/04 05:07:21;;;;;;;0.40;0.20;;;;;;;5.50;100.00;97994.56;5016764;28;20118;-60
2022/12/04 05:09:47;;;;;;;0.88;0.40;;;;;;;5.37;100.00;97969.00;4996823;28;20046;-61
2022/12/04 05:12:12;;;;;;;1.23;0.40;;;;;;;5.31;100.00;97967.75;5013707;28;20030;-57
2022/12/04 05:14:37;;;;;;;0.70;0.30;;;;;;;5.56;100.00;98006.94;5016563;28;20179;-60
2022/12/04 05:17:04;;;;;;;1.17;0.30;;;;;;;5.49;100.00;97988.56;5003867;28;20029;-59
2022/12/04 05:22:36;;;;;;;1.45;0.38;;;;;;;5.56;100.00;98002.59;5003102;28;20044;-57
2022/12/04 05:25:02;;;;;;;0.93;0.47;;;;;;;5.61;100.00;98004.00;5002690;28;20053;-59
2022/12/04 05:27:28;;;;;;;1.27;0.47;;;;;;;5.56;100.00;97988.88;5021809;28;20117;-56
2022/12/04 05:29:55;;;;;;;0.63;0.30;;;;;;;5.57;100.00;98000.84;4986124;28;20521;-58
2022/12/04 05:32:22;;;;;;;1.05;0.40;;;;;;;5.24;100.00;97947.72;5017682;28;20026;-57
2022/12/04 05:34:52;;;;;;;0.88;0.32;;;;;;;5.61;100.00;97991.09;5002578;28;20068;-59
2022/12/04 05:37:17;;;;;;;0.80;0.30;;;;;;;5.46;100.00;97967.38;5020468;28;20040;-57
2022/12/04 05:39:43;;;;;;;1.00;0.30;;;;;;;5.70;100.00;97998.06;4999475;28;20031;-58
2022/12/04 05:42:09;;;;;;;1.38;0.43;;;;;;;5.63;100.00;97997.75;4998556;28;20113;-57
2022/12/04 05:44:34;;;;;;;1.17;0.40;;;;;;;5.65;100.00;97995.84;5004966;28;20597;-56
2022/12/04 05:46:59;;;;;;;0.85;0.40;;;;;;;5.61;100.00;97991.91;5001441;28;20065;-59
2022/12/04 05:49:28;;;;;;;2.22;0.43;;;;;;;5.62;100.00;97990.94;5003168;28;20033;-60
2022/12/04 05:51:53;;;;;;;0.93;0.40;;;;;;;5.56;100.00;97994.84;5016115;28;20032;-57
2022/12/04 05:54:19;;;;;;;0.75;0.40;;;;;;;5.47;100.00;97972.41;5001073;28;20029;-61
2022/12/04 05:56:44;;;;;;;1.05;0.35;;;;;;;5.26;100.00;97928.63;4998049;28;20037;-56
2022/12/04 05:59:10;;;;;;;1.05;0.40;;;;;;;5.59;100.00;97984.28;4999425;28;20026;-59
2022/12/04 06:01:36;;;;;;;1.17;0.40;;;;;;;5.57;100.00;97983.59;4999069;28;20042;-60
2022/12/04 06:04:01;;;;;;;1.73;0.50;;;;;;;5.63;100.00;97981.47;5000663;28;20117;-57
2022/12/04 06:06:27;;;;;;;1.05;0.43;;;;;;;5.29;100.00;97936.09;5016304;28;20053;-57
2022/12/04 06:08:54;;;;;;;1.75;0.50;;;;;;;5.55;100.00;97993.25;4998642;28;20393;-56
2022/12/04 06:11:26;;;;;;;1.35;0.40;;;;;;;5.58;100.00;97987.00;5015358;28;20038;-58
2022/12/04 06:13:51;;;;;;;0.75;0.30;;;;;;;5.51;100.00;97981.56;4999749;28;20496;-57
2022/12/04 06:16:22;;;;;;;1.23;0.40;;;;;;;5.54;100.00;97980.47;4983561;28;20085;-57
2022/12/04 06:18:49;;;;;;;1.70;0.55;;;;;;;5.51;100.00;97976.41;5015111;28;20084;-58
2022/12/04 06:21:15;;;;;;;1.00;0.50;;;;;;;5.52;100.00;97982.34;4983706;28;20036;-58
2022/12/04 06:23:40;;;;;;;1.55;0.47;;;;;;;5.44;100.00;97961.53;5003727;28;20392;-58
2022/12/04 06:26:07;;;;;;;1.10;0.50;;;;;;;5.44;100.00;97977.84;5006750;28;20041;-57
2022/12/04 06:28:32;;;;;;;1.52;0.55;;;;;;;5.48;100.00;97966.31;4996951;28;20034;-58
2022/12/04 06:31:08;;;;;;;1.70;0.60;;;;;;;5.48;100.00;97971.47;5004343;28;20041;-57
2022/12/04 06:33:34;;;;;;;1.52;0.40;;;;;;;5.46;100.00;97973.38;4984638;28;20029;-56
2022/12/04 06:36:01;;;;;;;0.95;0.40;;;;;;;5.19;100.00;97930.06;5005461;28;20413;-58
2022/12/04 06:38:27;;;;;;;1.10;0.40;;;;;;;5.52;100.00;97966.88;4992584;28;20037;-57
2022/12/04 06:40:52;;;;;;;2.55;0.40;;;;;;;5.39;100.00;97955.00;4994834;28;20029;-59
2022/12/04 06:43:18;;;;;;;0.93;0.40;;;;;;;5.29;100.00;97948.97;5003912;28;20029;-58
2022/12/04 06:45:43;;;;;;;3.45;0.65;;;;;;;5.34;100.00;97956.34;5019972;28;20057;-57
2022/12/04 06:48:09;;;;;;;1.75;0.50;;;;;;;5.20;100.00;97929.13;5022983;28;20439;-56
2022/12/04 06:50:34;;;;;;;1.80;0.50;;;;;;;5.40;100.00;97979.03;5007171;28;20022;-59
2022/12/04 06:52:59;;;;;;;2.45;0.90;;;;;;;5.36;100.00;97977.66;5018737;28;20065;-59
2022/12/04 06:55:25;;;;;;;2.95;0.73;;;;;;;5.45;100.00;97986.38;5006484;28;20037;-57
2022/12/04 06:57:50;;;;;;;2.20;0.70;;;;;;;5.48;100.00;97992.09;4999809;28;20521;-56
2022/12/04 07:00:16;;;;;;;1.88;0.50;;;;;;;5.47;100.00;97993.03;5002700;28;20037;-59
2022/12/04 07:02:41;;;;;;;1.92;0.60;;;;;;;5.55;100.00;97988.06;5001549;28;20113;-57
2022/12/04 07:05:07;;;;;;;1.80;0.55;;;;;;;5.54;100.00;97981.28;5018114;28;20038;-58
2022/12/04 07:07:32;;;;;;;3.13;1.00;;;;;;;5.46;100.00;97973.38;5005380;28;20054;-59
2022/12/04 07:09:57;;;;;;;2.47;0.77;;;;;;;5.51;100.00;97991.03;5005436;28;20036;-58
2022/12/04 07:12:23;;;;;;;2.88;0.70;;;;;;;5.48;100.00;97979.22;5005848;28;20473;-58
2022/12/04 07:14:48;;;;;;;1.92;0.63;;;;;;;5.54;100.00;97978.69;4998744;28;20468;-57
2022/12/04 07:17:14;;;;;;;1.30;0.60;;;;;;;5.52;100.00;97977.19;4982660;28;20037;-57
2022/12/04 07:19:39;;;;;;;1.88;0.50;;;;;;;5.59;100.00;97981.72;5000893;28;20063;-57
2022/12/04 07:22:05;;;;;;;2.10;0.60;;;;;;;5.50;100.00;97985.06;5003731;28;20042;-57
2022/12/04 07:24:31;;;;;;;2.33;0.70;;;;;;;5.42;100.00;97978.91;4993033;28;20061;-58
2022/12/04 07:26:56;;;;;;;1.45;0.52;;;;;;;5.42;100.00;97982.31;5004815;28;20061;-58
2022/12/04 07:29:21;;;;;;;1.15;0.38;;;;;;;5.47;100.00;97985.31;5003177;28;20041;-60
2022/12/04 07:31:47;;;;;;;1.10;0.30;;;;;;;5.46;100.00;97975.94;4999286;28;20099;-57
2022/12/04 07:34:13;;;;;;;1.23;0.40;;;;;;;5.49;100.00;97980.84;5003762;28;20038;-59
2022/12/04 07:36:39;;;;;;;0.82;0.40;;;;;;;5.51;100.00;97986.72;5007534;28;20040;-57
2022/12/04 07:39:05;;;;;;;2.85;0.95;;;;;;;5.52;100.00;97980.59;5000366;28;20306;-57
2022/12/04 07:41:30;;;;;;;1.95;0.70;;;;;;;5.27;100.00;97945.72;5000984;28;20676;-59
2022/12/04 07:43:56;;;;;;;1.42;0.60;;;;;;;5.53;100.00;97987.38;4998235;28;20045;-58
2022/12/04 07:46:26;;;;;;;1.42;0.57;;;;;;;5.49;100.00;97987.75;5001438;28;20026;-57
2022/12/04 07:48:53;;;;;;;1.92;0.65;;;;;;;5.55;100.00;97995.81;5002304;28;20034;-59
2022/12/04 07:51:21;;;;;;;1.50;0.47;;;;;;;5.47;100.00;97994.81;4987054;28;20479;-58
2022/12/04 07:53:47;;;;;;;1.17;0.45;;;;;;;5.38;100.00;97980.91;4981921;28;20029;-56
2022/12/04 07:56:13;;;;;;;1.85;0.50;;;;;;;5.31;100.00;97959.16;5014892;28;20079;-58
2022/12/04 07:58:39;;;;;;;0.73;0.35;;;;;;;5.51;100.00;97994.44;5002007;28;20125;-59
2022/12/04 08:01:11;;;;;;;1.30;0.40;;;;;;;5.51;100.00;98007.34;4984034;28;20448;-57
2022/12/04 08:03:37;;;;;;;2.05;0.95;;;;;;;5.54;100.00;97999.31;5004410;28;20080;-59
2022/12/04 08:06:04;;;;;;;1.60;0.40;;;;;;;5.32;100.00;97965.97;4998776;28;20057;-58
2022/12/04 08:08:30;;;;;;;2.30;0.65;;;;;;;5.60;100.00;97995.41;5019809;28;20229;-59
2022/12/04 08:10:56;;;;;;;0.80;0.40;;;;;;;5.24;100.00;97948.56;4987456;28;20041;-57
2022/12/04 08:13:21;;;;;;;3.53;0.80;;;;;;;5.54;100.00;98001.09;4981348;28;20037;-58
2022/12/04 08:15:47;;;;;;;2.40;0.60;;;;;;;5.57;100.00;98004.22;5000200;28;20386;-59
2022/12/04 08:18:12;;;;;;;1.73;0.60;;;;;;;5.55;100.00;98008.72;5005898;28;20053;-58
2022/12/04 08:20:37;;;;;;;1.65;0.55;;;;;;;5.50;100.00;97999.72;4995479;28;20031;-59
2022/12/04 08:23:03;;;;;;;2.72;0.77;;;;;;;5.56;100.00;98006.94;5004883;28;20100;-58
2022/12/04 08:25:28;;;;;;;2.20;0.65;;;;;;;5.62;100.00;98001.25;5000227;28;20065;-56
2022/12/04 08:27:54;;;;;;;1.45;0.50;;;;;;;5.61;100.00;98004.81;5003970;28;20111;-57
2022/12/04 08:30:19;;;;;;;1.65;0.50;;;;;;;5.61;100.00;98002.22;4998610;28;20025;-58
2022/12/04 08:32:45;;;;;;;4.88;1.20;;;;;;;5.35;100.00;97973.44;5003832;28;20079;-56
2022/12/04 08:35:10;;;;;;;4.13;1.45;;;;;;;5.59;100.00;98006.69;5009021;28;20030;-56
2022/12/04 08:37:35;;;;;;;5.63;2.50;;;;;;;5.57;100.00;98009.41;5012260;28;20504;-59
2022/12/04 08:40:01;;;;;;;4.25;1.80;;;;;;;5.63;100.00;98008.06;5003327;28;20026;-58
2022/12/04 08:42:27;;;;;;;4.65;1.75;;;;;;;5.64;100.00;98016.59;5005573;28;20038;-58
2022/12/04 08:44:52;;;;;;;5.28;1.67;;;;;;;5.59;100.00;98011.84;4998010;28;20029;-57
2022/12/04 08:47:17;;;;;;;4.13;1.30;;;;;;;5.58;100.00;98015.38;4996383;28;20025;-56
2022/12/04 08:49:43;;;;;;;4.05;1.40;;;;;;;5.54;100.00;98008.84;5011364;28;20049;-58
2022/12/04 08:52:08;;;;;;;3.28;1.08;;;;;;;5.55;100.00;98010.47;5010151;28;20029;-56
2022/12/04 08:54:34;;;;;;;4.13;0.90;;;;;;;5.59;100.00;98028.13;5000476;28;20102;-55
2022/12/04 08:56:59;;;;;;;8.95;2.67;;;;;;;5.63;100.00;98017.56;5007774;28;20041;-57
2022/12/04 08:59:24;;;;;;;5.82;1.90;;;;;;;5.65;100.00;98016.50;4994873;28;20026;-60
2022/12/04 09:01:50;;;;;;;4.75;1.63;;;;;;;5.66;100.00;98025.03;4998406;28;20116;-59
2022/12/04 09:04:16;;;;;;;6.47;2.42;;;;;;;5.57;100.00;98022.28;4996677;28;20022;-58
2022/12/04 09:06:42;;;;;;;7.65;3.13;;;;;;;5.68;100.00;98031.72;4987595;28;20152;-60
2022/12/04 09:09:07;;;;;;;7.53;2.88;;;;;;;5.39;100.00;97987.72;5001987;28;20432;-59
2022/12/04 09:11:33;;;;;;;6.90;2.85;;;;;;;5.68;100.00;98041.22;5001640;28;20498;-60
2022/12/04 09:14:00;;;;;;;13.68;5.15;;;;;;;5.65;100.00;98044.84;5014049;28;20463;-57
2022/12/04 09:16:25;;;;;;;7.78;3.20;;;;;;;5.31;100.00;97996.09;4984769;28;20034;-60
2022/12/04 09:18:51;;;;;;;4.85;1.75;;;;;;;5.61;100.00;98046.06;5002040;28;20091;-59
2022/12/04 09:21:18;;;;;;;5.97;2.00;;;;;;;5.58;100.00;98047.16;5005723;28;20037;-58
2022/12/04 09:23:44;;;;;;;4.57;1.10;;;;;;;5.65;100.00;98049.22;5013916;28;20501;-57
2022/12/04 09:26:17;;;;;;;3.70;1.20;;;;;;;5.47;100.00;98015.44;5013205;28;20046;-59
2022/12/04 09:28:43;;;;;;;6.03;2.63;;;;;;;5.67;100.00;98049.91;5011581;28;20041;-56
2022/12/04 09:31:09;;;;;;;5.28;2.30;;;;;;;5.72;100.00;98058.88;5010994;28;20030;-56
2022/12/04 09:33:34;;;;;;;6.82;2.83;;;;;;;5.70;100.00;98059.97;5004682;28;20038;-59
2022/12/04 09:36:01;;;;;;;6.22;2.60;;;;;;;5.73;100.00;98067.44;5009847;28;20033;-58
2022/12/04 09:38:27;;;;;;;5.38;2.15;;;;;;;5.46;100.00;98013.78;5018671;28;20023;-62
2022/12/04 09:40:53;;;;;;;6.35;2.45;;;;;;;5.76;100.00;98072.34;4996074;28;20034;-58
2022/12/04 09:43:21;;;;;;;4.97;1.90;;;;;;;5.78;100.00;98065.28;4998018;28;20038;-57
2022/12/04 09:45:50;;;;;;;4.78;2.20;;;;;;;5.71;100.00;98075.31;5014357;28;20046;-57
2022/12/04 09:48:17;;;;;;;5.28;2.15;;;;;;;5.72;100.00;98069.19;5012778;28;20069;-61
2022/12/04 09:50:44;;;;;;;4.97;2.10;;;;;;;5.76;100.00;98074.94;4997541;28;20781;-57
2022/12/04 09:53:18;;;;;;;7.15;1.90;;;;;;;5.79;100.00;98077.25;5001714;28;20088;-58
2022/12/04 09:56:03;;;;;;;5.43;2.28;;;;;;;5.73;100.00;98081.16;5018368;28;21123;-58
2022/12/04 09:59:02;;;;;;;7.50;3.30;;;;;;;5.74;100.00;98084.56;4987654;28;20036;-59
2022/12/04 10:01:45;;;;;;;8.45;3.90;;;;;;;5.76;100.00;98085.25;5003967;28;20038;-61
2022/12/04 10:04:11;;;;;;;6.10;2.22;;;;;;;5.76;100.00;98082.66;5010365;28;22074;-62
2022/12/04 10:07:13;;;;;;;3.60;1.02;;;;;;;5.53;100.00;98057.03;4986910;28;20038;-59
2022/12/04 10:09:49;;;;;;;2.75;1.08;;;;;;;5.51;100.00;98040.88;4999320;28;20042;-60
2022/12/04 10:12:30;;;;;;;3.67;1.35;;;;;;;5.54;100.00;98060.41;4999084;28;20026;-56
2022/12/04 10:15:00;;;;;;;3.70;1.45;;;;;;;5.88;100.00;98097.13;5008256;28;20129;-58
2022/12/04 10:17:44;;;;;;;3.95;1.90;;;;;;;5.72;100.00;98086.44;5001277;28;20076;-58
2022/12/04 10:20:21;;;;;;;4.18;1.70;;;;;;;5.77;100.00;98095.44;5016020;28;20054;-61
2022/12/04 10:22:58;;;;;;;4.25;1.45;;;;;;;5.76;100.00;98101.53;5007227;28;20068;-58
2022/12/04 10:25:25;;;;;;;3.47;1.42;;;;;;;5.69;100.00;98099.59;4998506;28;20473;-55
2022/12/04 10:28:05;;;;;;;4.30;1.38;;;;;;;5.69;100.00;98099.59;5021816;28;20052;-59
2022/12/04 10:30:31;;;;;;;;;;;;;;;5.71;100.00;98103.69;4988454;28;20042;-56
2022/12/04 10:33:14;;;;;;;3.58;1.08;;;;;;;5.76;100.00;98098.16;5020597;28;19923;-57
2022/12/04 10:35:41;;;;;;;3.42;1.17;;;;;;;5.72;100.00;98101.94;4980966;28;20117;-56
2022/12/04 10:38:14;;;;;;;2.63;0.90;;;;;;;5.48;100.00;98063.50;5016077;28;20037;-58
2022/12/04 10:40:47;;;;;;;4.18;1.10;;;;;;;5.75;100.00;98105.06;4987926;28;20084;-57
2022/12/04 10:43:17;;;;;;;4.35;1.40;;;;;;;5.81;100.00;98108.91;4998024;28;20034;-58
2022/12/04 10:45:42;;;;;;;;;;;;;;;5.71;100.00;98100.28;4983350;28;20122;-60
2022/12/04 10:48:33;;;;;;;6.00;2.13;;;;;;;5.76;100.00;98106.69;5020982;28;20004;-57
2022/12/04 10:50:59;;;;;;;5.78;2.70;;;;;;;5.70;100.00;98099.47;4976187;28;20378;-56
2022/12/04 10:53:30;;;;;;;5.93;2.60;;;;;;;5.78;100.00;98101.41;5005636;28;20113;-57
2022/12/04 10:55:55;;;;;;;4.88;2.38;;;;;;;5.74;100.00;98094.88;4983622;28;20546;-56
2022/12/04 10:58:21;;;;;;;6.43;2.83;;;;;;;5.81;100.00;98098.59;5000874;28;20033;-57
2022/12/04 11:01:10;;;;;;;5.82;2.90;;;;;;;5.78;100.00;98102.22;5004633;28;20527;-56
2022/12/04 11:03:36;;;;;;;4.10;1.70;;;;;;;5.80;100.00;98106.44;5000993;28;20703;-56
2022/12/04 11:06:06;;;;;;;3.45;1.35;;;;;;;5.77;100.00;98092.88;5016108;28;20026;-55
2022/12/04 11:08:38;;;;;;;;;;;;;;;5.84;100.00;98106.09;4987885;28;20026;-57
2022/12/04 11:11:12;;;;;;;3.90;1.00;;;;;;;5.88;100.00;98102.28;5003411;28;19920;-57
2022/12/04 11:13:39;;;;;;;3.97;1.40;;;;;;;5.95;100.00;98118.06;5003757;28;20510;-56
2022/12/04 11:16:07;;;;;;;4.00;1.10;;;;;;;5.81;100.00;98098.59;5002760;28;20038;-57
2022/12/04 11:18:45;;;;;;;4.00;1.50;;;;;;;5.89;100.00;98113.44;5005746;28;20137;-56
2022/12/04 11:21:16;;;;;;;4.70;1.60;;;;;;;5.90;100.00;98108.16;4998924;28;20095;-57
2022/12/04 11:23:47;;;;;;;4.65;1.73;;;;;;;5.96;100.00;98110.22;5000537;28;20025;-60
2022/12/04 11:26:12;;;;;;;3.05;0.90;;;;;;;5.95;100.00;98116.34;5023466;28;20048;-57
2022/12/04 11:28:42;;;;;;;5.57;2.15;;;;;;;5.64;100.00;98052.72;5016451;28;20034;-58
2022/12/04 11:31:09;;;;;;;4.15;1.73;;;;;;;5.95;100.00;98100.00;4999285;28;20036;-56
2022/12/04 11:33:39;;;;;;;3.92;1.65;;;;;;;5.99;100.00;98103.19;5002000;28;20033;-58
2022/12/04 11:36:17;;;;;;;4.45;1.83;;;;;;;5.97;100.00;98093.81;5000501;28;20095;-60
2022/12/04 11:38:42;;;;;;;3.85;1.45;;;;;;;6.00;100.00;98104.81;4984474;28;20465;-58
2022/12/04 11:41:25;;;;;;;4.82;1.60;;;;;;;5.75;100.00;98057.84;5000519;28;20040;-57
2022/12/04 11:43:50;;;;;;;4.65;1.50;;;;;;;5.97;100.00;98098.16;4997224;28;20038;-60
2022/12/04 11:46:22;;;;;;;5.13;2.47;;;;;;;5.77;100.00;98068.84;5017500;28;20064;-58
2022/12/04 11:48:47;;;;;;;4.57;1.65;;;;;;;5.98;100.00;98102.38;4999115;28;20034;-59
2022/12/04 11:51:34;;;;;;;2.83;0.82;;;;;;;6.00;100.00;98091.91;5015513;28;20473;-62
2022/12/04 11:54:11;;;;;;;5.30;1.77;;;;;;;6.05;100.00;98092.38;4999535;28;20084;-58
2022/12/04 11:56:46;;;;;;;6.55;1.80;;;;;;;6.12;100.00;98102.03;4996867;28;20072;-62
2022/12/04 11:59:23;;;;;;;3.22;1.10;;;;;;;6.15;100.00;98113.84;4984466;28;20623;-61